createdAt,value
2022-12-13T00:01:56.935Z,39.77
2022-12-13T00:04:27.241Z,34.87
2022-12-13T00:06:54.557Z,35.07
2022-12-13T00:09:22.301Z,34.70
2022-12-13T00:11:52.312Z,35.00
2022-12-13T00:14:21.721Z,35.57
2022-12-13T00:16:49.680Z,40.77
2022-12-13T00:19:18.017Z,40.73
2022-12-13T00:21:47.656Z,36.40
2022-12-13T00:24:17.149Z,33.20
2022-12-13T00:26:44.336Z,33.73
2022-12-13T00:29:11.986Z,34.40
2022-12-13T00:34:26.515Z,36.83
2022-12-13T00:36:54.851Z,40.67
2022-12-13T00:39:22.221Z,37.93
2022-12-13T00:41:49.359Z,37.53
2022-12-13T00:44:21.417Z,33.10
2022-12-13T00:46:53.916Z,34.30
2022-12-13T00:49:23.583Z,37.70
2022-12-13T00:51:50.757Z,38.67
2022-12-13T00:54:23.074Z,35.57
2022-12-13T00:56:54.622Z,36.57
2022-12-13T00:59:21.796Z,36.20
2022-12-13T01:01:49.125Z,33.03
2022-12-13T01:04:18.393Z,33.67
2022-12-13T01:06:49.752Z,32.73
2022-12-13T01:09:23.179Z,34.43
2022-12-13T01:11:50.825Z,36.37
2022-12-13T01:14:22.666Z,32.67
2022-12-13T01:16:55.796Z,35.47
2022-12-13T01:19:26.760Z,33.83
2022-12-13T01:22:05.741Z,32.90
2022-12-13T01:24:33.862Z,33.63
2022-12-13T01:27:05.133Z,34.57
2022-12-13T01:29:34.815Z,34.17
2022-12-13T01:32:04.629Z,35.83
2022-12-13T01:34:32.005Z,35.77
2022-12-13T01:36:59.165Z,35.77
2022-12-13T01:39:31.008Z,34.67
2022-12-13T01:42:05.571Z,39.27
2022-12-13T01:45:07.283Z,36.33
2022-12-13T01:47:45.854Z,33.03
2022-12-13T01:50:18.564Z,35.67
2022-12-13T01:52:47.639Z,36.60
2022-12-13T01:55:16.989Z,33.70
2022-12-13T01:57:47.261Z,34.07
2022-12-13T02:00:15.347Z,35.57
2022-12-13T02:02:45.670Z,37.17
2022-12-13T02:05:38.707Z,32.67
2022-12-13T02:08:10.144Z,33.67
2022-12-13T02:10:37.735Z,34.60
2022-12-13T02:13:05.560Z,32.50
2022-12-13T02:16:01.622Z,31.27
2022-12-13T02:18:56.319Z,33.80
2022-12-13T02:21:30.537Z,34.33
2022-12-13T02:24:26.994Z,34.00
2022-12-13T02:27:06.443Z,31.80
2022-12-13T02:29:51.744Z,31.20
2022-12-13T02:32:38.027Z,32.97
2022-12-13T02:35:13.987Z,31.50
2022-12-13T02:38:11.485Z,28.33
2022-12-13T02:40:45.092Z,31.73
2022-12-13T02:43:24.199Z,33.43
2022-12-13T02:45:55.295Z,30.80
2022-12-13T02:48:34.121Z,33.20
2022-12-13T02:51:06.116Z,30.90
2022-12-13T02:53:39.049Z,36.80
2022-12-13T02:56:06.342Z,30.33
2022-12-13T02:58:39.907Z,33.27
2022-12-13T03:01:27.821Z,32.70
2022-12-13T03:04:23.462Z,27.80
2022-12-13T03:06:59.305Z,33.07
2022-12-13T03:09:50.479Z,32.77
2022-12-13T03:12:49.696Z,29.50
2022-12-13T03:15:58.839Z,28.47
2022-12-13T03:18:29.748Z,30.97
2022-12-13T03:21:01.562Z,28.63
2022-12-13T03:23:29.204Z,30.47
2022-12-13T03:26:12.389Z,30.77
2022-12-13T03:28:42.482Z,26.20
2022-12-13T03:31:09.674Z,28.53
2022-12-13T03:33:40.127Z,28.03
2022-12-13T03:36:11.583Z,26.53
2022-12-13T03:38:40.698Z,28.03
2022-12-13T03:41:14.041Z,25.30
2022-12-13T03:43:41.613Z,30.17
2022-12-13T03:46:12.002Z,28.50
2022-12-13T03:48:41.809Z,26.60
2022-12-13T03:51:10.988Z,24.13
2022-12-13T03:53:40.509Z,26.60
2022-12-13T03:56:07.961Z,23.77
2022-12-13T03:58:38.497Z,25.87
2022-12-13T04:01:10.952Z,24.83
2022-12-13T04:03:46.811Z,22.37
2022-12-13T04:06:21.848Z,25.90
2022-12-13T04:08:51.076Z,25.23
2022-12-13T04:11:43.265Z,22.50
2022-12-13T04:14:21.984Z,24.70
2022-12-13T04:16:51.794Z,26.67
2022-12-13T04:19:23.827Z,23.43
2022-12-13T04:21:54.480Z,23.50
2022-12-13T04:24:31.664Z,26.20
2022-12-13T04:27:01.100Z,24.70
2022-12-13T04:29:34.547Z,22.87
2022-12-13T04:32:04.329Z,20.90
2022-12-13T04:34:36.816Z,21.00
2022-12-13T04:37:04.838Z,18.20
2022-12-13T04:39:34.708Z,26.03
2022-12-13T04:42:05.733Z,21.67
2022-12-13T04:44:37.077Z,21.50
2022-12-13T04:47:09.984Z,18.93
2022-12-13T04:49:39.310Z,18.93
2022-12-13T04:52:09.982Z,22.47
2022-12-13T04:54:37.183Z,23.07
2022-12-13T04:57:07.316Z,19.00
2022-12-13T04:59:38.323Z,21.00
2022-12-13T05:02:07.100Z,20.57
2022-12-13T05:04:39.488Z,20.80
2022-12-13T05:07:06.746Z,20.90
2022-12-13T05:09:36.527Z,20.17
2022-12-13T05:12:04.147Z,22.37
2022-12-13T05:14:49.275Z,22.40
2022-12-13T05:17:18.691Z,21.43
2022-12-13T05:19:48.045Z,21.20
2022-12-13T05:22:20.201Z,25.17
2022-12-13T05:24:53.055Z,24.57
2022-12-13T05:27:26.763Z,19.53
2022-12-13T05:30:03.612Z,24.43
2022-12-13T05:32:43.426Z,22.77
2022-12-13T05:35:23.362Z,20.40
2022-12-13T05:37:55.469Z,24.17
2022-12-13T05:40:24.450Z,22.87
2022-12-13T05:42:51.663Z,20.50
2022-12-13T05:45:32.310Z,24.20
2022-12-13T05:47:59.689Z,23.70
2022-12-13T05:50:27.009Z,23.33
2022-12-13T05:52:58.994Z,20.27
2022-12-13T05:55:28.189Z,20.83
2022-12-13T05:58:02.720Z,20.63
2022-12-13T06:00:31.056Z,21.03
2022-12-13T06:03:00.462Z,22.00
2022-12-13T06:05:32.154Z,19.17
2022-12-13T06:08:01.648Z,25.03
2022-12-13T06:10:34.166Z,25.10
2022-12-13T06:13:21.885Z,21.93
2022-12-13T06:15:52.380Z,25.87
2022-12-13T06:18:31.147Z,24.57
2022-12-13T06:21:03.881Z,22.80
2022-12-13T06:23:35.218Z,23.07
2022-12-13T06:26:06.910Z,22.57
2022-12-13T06:28:38.833Z,27.23
2022-12-13T06:31:06.171Z,21.27
2022-12-13T06:33:36.776Z,26.23
2022-12-13T06:36:04.912Z,26.30
2022-12-13T06:38:35.207Z,22.27
2022-12-13T06:41:16.881Z,25.73
2022-12-13T06:43:45.462Z,25.43
2022-12-13T06:46:15.706Z,24.77
2022-12-13T06:48:42.967Z,24.30
2022-12-13T06:51:10.602Z,24.40
2022-12-13T06:53:41.156Z,23.33
2022-12-13T06:56:13.221Z,24.17
2022-12-13T06:58:43.472Z,25.37
2022-12-13T07:01:24.039Z,25.43
2022-12-13T07:03:55.923Z,23.70
2022-12-13T07:06:24.307Z,26.77
2022-12-13T07:08:56.281Z,22.20
2022-12-13T07:11:29.030Z,24.63
2022-12-13T07:13:56.837Z,25.03
2022-12-13T07:16:24.645Z,20.93
2022-12-13T07:19:01.242Z,23.37
2022-12-13T07:21:38.343Z,26.20
2022-12-13T07:24:06.042Z,24.00
2022-12-13T07:26:33.169Z,24.57
2022-12-13T07:29:00.324Z,22.23
2022-12-13T07:31:29.610Z,25.97
2022-12-13T07:33:59.289Z,25.27
2022-12-13T07:36:26.479Z,26.80
2022-12-13T07:38:55.297Z,26.97
2022-12-13T07:41:24.359Z,26.93
2022-12-13T07:43:56.112Z,25.97
2022-12-13T07:46:32.406Z,27.63
2022-12-13T07:49:04.248Z,26.83
2022-12-13T07:51:35.908Z,29.63
2022-12-13T07:54:08.296Z,26.27
2022-12-13T07:56:37.937Z,28.93
2022-12-13T07:59:08.879Z,34.17
2022-12-13T08:01:38.405Z,31.37
2022-12-13T08:04:08.211Z,26.27
2022-12-13T08:06:38.490Z,23.97
2022-12-13T08:09:08.120Z,26.90
2022-12-13T08:11:37.552Z,29.83
2022-12-13T08:14:08.242Z,26.90
2022-12-13T08:16:37.834Z,26.40
2022-12-13T08:19:05.028Z,33.57
2022-12-13T08:22:01.523Z,28.80
2022-12-13T08:24:30.994Z,33.23
2022-12-13T08:27:05.114Z,28.17
2022-12-13T08:29:37.436Z,33.67
2022-12-13T08:32:13.286Z,33.30
2022-12-13T08:34:44.132Z,29.63
2022-12-13T08:37:13.840Z,32.67
2022-12-13T08:39:41.176Z,32.23
2022-12-13T08:42:20.160Z,27.50
2022-12-13T08:44:54.116Z,31.57
2022-12-13T08:47:25.837Z,29.37
2022-12-13T08:50:01.271Z,29.13
2022-12-13T08:52:39.564Z,30.37
2022-12-13T08:55:09.221Z,29.80
2022-12-13T08:57:38.540Z,29.57
2022-12-13T09:00:06.789Z,27.83
2022-12-13T09:02:37.810Z,27.30
2022-12-13T09:05:07.903Z,29.27
2022-12-13T09:07:36.474Z,28.37
2022-12-13T09:10:26.808Z,30.27
2022-12-13T09:13:01.089Z,29.30
2022-12-13T09:15:33.722Z,27.23
2022-12-13T09:18:04.833Z,28.57
2022-12-13T09:20:41.523Z,23.80
2022-12-13T09:23:23.072Z,26.77
2022-12-13T09:25:56.349Z,29.67
2022-12-13T09:28:35.234Z,29.70
2022-12-13T09:31:07.296Z,27.93
2022-12-13T09:33:41.582Z,27.43
2022-12-13T09:36:14.673Z,28.17
2022-12-13T09:38:47.032Z,26.30
2022-12-13T09:41:28.593Z,28.00
2022-12-13T09:44:04.489Z,29.10
2022-12-13T09:46:44.497Z,29.77
2022-12-13T09:49:26.889Z,27.00
2022-12-13T09:52:10.608Z,26.23
2022-12-13T09:54:48.162Z,26.53
2022-12-13T09:57:31.987Z,26.87
2022-12-13T10:00:08.449Z,28.30
2022-12-13T10:02:43.981Z,29.40
2022-12-13T10:05:34.439Z,22.87
2022-12-13T10:08:25.125Z,27.43
2022-12-13T10:10:55.827Z,26.97
2022-12-13T10:13:43.530Z,26.67
2022-12-13T10:16:26.572Z,25.00
2022-12-13T10:19:28.966Z,27.73
2022-12-13T10:22:01.450Z,28.83
2022-12-13T10:24:48.156Z,26.10
2022-12-13T10:27:18.423Z,28.33
2022-12-13T10:30:08.790Z,26.47
2022-12-13T10:32:43.846Z,31.10
2022-12-13T10:35:22.246Z,38.27
2022-12-13T10:37:52.373Z,37.50
2022-12-13T10:40:48.955Z,30.00
2022-12-13T10:43:27.202Z,29.63
2022-12-13T10:45:57.901Z,35.47
2022-12-13T10:48:51.874Z,27.93
2022-12-13T10:51:25.313Z,33.47
2022-12-13T10:53:59.026Z,29.13
2022-12-13T10:56:41.650Z,27.77
2022-12-13T10:59:18.206Z,27.70
2022-12-13T11:01:48.076Z,27.47
2022-12-13T11:04:31.563Z,30.30
2022-12-13T11:07:26.230Z,27.13
2022-12-13T11:09:53.651Z,28.50
2022-12-13T11:12:26.608Z,30.90
2022-12-13T11:15:00.552Z,24.80
2022-12-13T11:17:30.821Z,26.00
2022-12-13T11:20:04.517Z,27.43
2022-12-13T11:22:38.516Z,27.00
2022-12-13T11:25:09.379Z,25.17
2022-12-13T11:28:02.768Z,23.33
2022-12-13T11:30:38.169Z,25.97
2022-12-13T11:33:17.127Z,22.40
2022-12-13T11:36:12.067Z,23.13
2022-12-13T11:39:00.380Z,22.13
2022-12-13T11:41:39.802Z,19.43
2022-12-13T11:44:24.009Z,27.13
2022-12-13T11:46:55.881Z,22.90
2022-12-13T11:49:43.948Z,26.30
2022-12-13T11:52:21.481Z,25.43
2022-12-13T11:54:51.952Z,26.73
2022-12-13T11:58:01.717Z,24.03
2022-12-13T12:00:37.682Z,24.47
2022-12-13T12:03:20.473Z,24.07
2022-12-13T12:05:57.262Z,25.40
2022-12-13T12:08:47.346Z,25.63
2022-12-13T12:11:40.569Z,25.37
2022-12-13T12:14:20.302Z,26.07
2022-12-13T12:16:55.772Z,26.70
2022-12-13T12:19:39.207Z,26.93
2022-12-13T12:22:33.455Z,26.43
2022-12-13T12:25:12.877Z,23.47
2022-12-13T12:27:57.896Z,26.70
2022-12-13T12:31:16.313Z,26.97
2022-12-13T12:34:08.968Z,27.03
2022-12-13T12:37:05.213Z,25.83
2022-12-13T12:39:43.732Z,28.70
2022-12-13T12:42:18.332Z,28.00
2022-12-13T12:44:58.100Z,26.27
2022-12-13T12:47:56.396Z,25.63
2022-12-13T12:50:23.174Z,24.97
2022-12-13T12:53:10.092Z,22.20
2022-12-13T12:55:51.621Z,25.23
2022-12-13T12:58:46.807Z,26.43
2022-12-13T13:01:37.750Z,23.33
2022-12-13T13:04:22.271Z,23.47
2022-12-13T13:07:23.247Z,26.57
2022-12-13T13:09:54.884Z,30.23
2022-12-13T13:12:29.162Z,25.83
2022-12-13T13:14:58.514Z,22.50
2022-12-13T13:17:25.809Z,24.67
2022-12-13T13:20:09.601Z,22.93
2022-12-13T13:22:42.877Z,23.83
2022-12-13T13:25:11.631Z,25.40
2022-12-13T13:27:48.357Z,27.67
2022-12-13T13:30:25.649Z,23.57
2022-12-13T13:32:57.910Z,23.97
2022-12-13T13:35:33.839Z,29.77
2022-12-13T13:38:20.600Z,27.83
2022-12-13T13:40:47.737Z,30.43
2022-12-13T13:43:17.401Z,31.90
2022-12-13T13:46:12.878Z,30.50
2022-12-13T13:49:15.849Z,27.43
2022-12-13T13:52:16.763Z,31.27
2022-12-13T13:54:50.708Z,29.30
2022-12-13T13:58:21.764Z,29.43
2022-12-13T14:01:07.764Z,34.13
2022-12-13T14:03:38.566Z,32.20
2022-12-13T14:06:35.334Z,34.17
2022-12-13T14:09:30.478Z,36.17
2022-12-13T14:12:15.742Z,37.10
2022-12-13T14:15:01.750Z,33.20
2022-12-13T14:17:58.236Z,34.63
2022-12-13T14:20:55.462Z,35.43
2022-12-13T14:23:32.166Z,35.23
2022-12-13T14:26:24.256Z,29.70
2022-12-13T14:29:02.652Z,35.50
2022-12-13T14:31:45.359Z,35.87
2022-12-13T14:34:26.378Z,34.80
2022-12-13T14:37:04.237Z,35.60
2022-12-13T14:39:34.689Z,35.30
2022-12-13T14:42:20.514Z,34.10
2022-12-13T14:44:49.952Z,36.23
2022-12-13T14:47:17.551Z,38.57
2022-12-13T14:49:50.772Z,35.10
2022-12-13T14:52:29.100Z,36.23
2022-12-13T14:54:59.596Z,39.17
2022-12-13T14:57:31.942Z,38.50
2022-12-13T15:00:19.830Z,41.17
2022-12-13T15:02:54.296Z,36.63
2022-12-13T15:05:32.639Z,41.03
2022-12-13T15:08:00.373Z,36.90
2022-12-13T15:10:48.258Z,38.03
2022-12-13T15:13:35.611Z,37.00
2022-12-13T15:16:10.197Z,40.67
2022-12-13T15:18:38.600Z,37.40
2022-12-13T15:21:27.950Z,39.27
2022-12-13T15:23:58.606Z,37.20
2022-12-13T15:26:28.296Z,36.33
2022-12-13T15:29:10.106Z,38.50
2022-12-13T15:31:40.875Z,36.93
2022-12-13T15:34:29.057Z,37.27
2022-12-13T15:37:03.176Z,41.57
2022-12-13T15:39:38.404Z,41.27
2022-12-13T15:42:15.815Z,41.40
2022-12-13T15:44:54.126Z,46.20
2022-12-13T15:47:28.314Z,43.00
2022-12-13T15:50:02.141Z,44.67
2022-12-13T15:52:31.271Z,40.23
2022-12-13T15:55:08.298Z,39.17
2022-12-13T15:57:36.573Z,36.97
2022-12-13T16:00:16.594Z,35.67
2022-12-13T16:03:14.460Z,36.33
2022-12-13T16:06:00.618Z,39.40
2022-12-13T16:08:40.818Z,37.47
2022-12-13T16:11:13.077Z,39.23
2022-12-13T16:13:40.231Z,40.87
2022-12-13T16:16:32.834Z,45.63
2022-12-13T16:19:18.236Z,45.23
2022-12-13T16:21:48.235Z,39.10
2022-12-13T16:24:18.324Z,44.17
2022-12-13T16:26:47.487Z,42.17
2022-12-13T16:29:19.280Z,41.37
2022-12-13T16:31:49.188Z,39.07
2022-12-13T16:34:19.743Z,38.77
2022-12-13T16:36:53.592Z,36.63
2022-12-13T16:39:20.752Z,41.87
2022-12-13T16:41:52.866Z,42.20
2022-12-13T16:44:26.586Z,40.97
2022-12-13T16:47:14.583Z,37.33
2022-12-13T16:49:45.589Z,37.77
2022-12-13T16:52:12.749Z,37.30
2022-12-13T16:54:39.880Z,38.63
2022-12-13T16:57:09.499Z,36.97
2022-12-13T16:59:41.074Z,33.47
2022-12-13T17:02:17.274Z,38.67
2022-12-13T17:04:46.948Z,35.17
2022-12-13T17:07:17.157Z,36.57
2022-12-13T17:09:44.410Z,34.80
2022-12-13T17:12:11.610Z,34.17
2022-12-13T17:14:41.515Z,32.20
2022-12-13T17:17:17.190Z,39.23
2022-12-13T17:19:47.268Z,36.63
2022-12-13T17:22:14.352Z,34.23
2022-12-13T17:24:41.492Z,33.50
2022-12-13T17:27:13.612Z,33.30
2022-12-13T17:29:46.937Z,33.80
2022-12-13T17:32:14.033Z,35.10
2022-12-13T17:34:41.138Z,33.80
2022-12-13T17:37:10.953Z,35.70
2022-12-13T17:39:40.577Z,35.73
2022-12-13T17:42:07.684Z,37.40
2022-12-13T17:44:35.207Z,34.70
2022-12-13T17:47:04.471Z,32.90
2022-12-13T17:49:33.624Z,34.67
2022-12-13T17:52:01.130Z,35.73
2022-12-13T17:54:30.499Z,33.53
2022-12-13T17:56:57.622Z,33.93
2022-12-13T17:59:24.748Z,33.10
2022-12-13T18:01:52.086Z,34.73
2022-12-13T18:04:20.419Z,31.93
2022-12-13T18:06:47.603Z,31.97
2022-12-13T18:09:14.766Z,34.37
2022-12-13T18:11:42.088Z,36.10
2022-12-13T18:14:09.313Z,37.47
2022-12-13T18:16:38.226Z,30.87
2022-12-13T18:19:14.903Z,37.53
2022-12-13T18:21:44.918Z,32.17
2022-12-13T18:24:14.971Z,37.90
2022-12-13T18:26:44.396Z,37.97
2022-12-13T18:29:11.513Z,37.00
2022-12-13T18:31:41.183Z,30.40
2022-12-13T18:34:11.308Z,32.60
2022-12-13T18:36:40.629Z,36.30
2022-12-13T18:39:07.829Z,32.03
2022-12-13T18:41:37.670Z,31.77
2022-12-13T18:44:10.128Z,33.10
2022-12-13T18:46:38.533Z,30.20
2022-12-13T18:49:06.603Z,32.80
2022-12-13T18:51:34.090Z,29.40
2022-12-13T18:54:01.358Z,28.90
2022-12-13T18:56:28.641Z,28.17
2022-12-13T18:58:58.051Z,31.10
2022-12-13T19:01:27.878Z,30.00
2022-12-13T19:03:55.309Z,32.67
2022-12-13T19:06:26.906Z,34.60
2022-12-13T19:08:57.904Z,30.07
2022-12-13T19:11:27.226Z,32.27
2022-12-13T19:13:59.264Z,31.20
2022-12-13T19:16:28.879Z,28.90
2022-12-13T19:18:57.301Z,28.67
2022-12-13T19:21:24.444Z,27.40
2022-12-13T19:23:57.672Z,28.83
2022-12-13T19:26:26.650Z,31.07
2022-12-13T19:28:59.392Z,28.00
2022-12-13T19:31:31.194Z,27.10
2022-12-13T19:34:00.864Z,28.77
2022-12-13T19:36:28.633Z,23.93
2022-12-13T19:38:56.210Z,24.27
2022-12-13T19:41:23.588Z,28.33
2022-12-13T19:43:54.128Z,23.80
2022-12-13T19:46:23.764Z,26.57
2022-12-13T19:48:53.728Z,27.10
2022-12-13T19:51:21.511Z,26.07
2022-12-13T19:53:49.063Z,28.67
2022-12-13T19:56:20.985Z,26.57
2022-12-13T19:58:54.184Z,25.87
2022-12-13T20:01:21.376Z,30.13
2022-12-13T20:03:51.334Z,29.97
2022-12-13T20:06:21.933Z,28.87
2022-12-13T20:08:49.782Z,25.67
2022-12-13T20:11:20.258Z,27.90
2022-12-13T20:13:53.256Z,27.60
2022-12-13T20:16:24.356Z,23.50
2022-12-13T20:19:01.098Z,28.10
2022-12-13T20:21:31.415Z,28.63
2022-12-13T20:24:01.614Z,30.13
2022-12-13T20:26:33.236Z,27.83
2022-12-13T20:29:02.931Z,28.20
2022-12-13T20:31:34.691Z,27.23
2022-12-13T20:34:14.083Z,25.50
2022-12-13T20:36:42.409Z,25.93
2022-12-13T20:39:12.425Z,25.87
2022-12-13T20:41:39.561Z,28.57
2022-12-13T20:44:09.248Z,27.97
2022-12-13T20:46:39.641Z,27.93
2022-12-13T20:49:09.036Z,24.37
2022-12-13T20:51:38.511Z,29.87
2022-12-13T20:54:10.540Z,37.20
2022-12-13T20:56:40.378Z,34.73
2022-12-13T20:59:11.985Z,29.03
2022-12-13T21:01:40.754Z,28.80
2022-12-13T21:04:11.996Z,28.83
2022-12-13T21:06:41.569Z,28.77
2022-12-13T21:09:12.197Z,31.33
2022-12-13T21:11:44.314Z,27.20
2022-12-13T21:14:25.868Z,26.53
2022-12-13T21:17:04.665Z,26.60
2022-12-13T21:19:39.133Z,28.10
2022-12-13T21:22:07.387Z,25.63
2022-12-13T21:24:39.273Z,25.20
2022-12-13T21:27:08.857Z,26.03
2022-12-13T21:29:36.071Z,24.77
2022-12-13T21:32:06.176Z,26.60
2022-12-13T21:34:35.903Z,27.27
2022-12-13T21:37:03.463Z,28.50
2022-12-13T21:39:33.362Z,28.87
2022-12-13T21:42:00.486Z,29.33
2022-12-13T21:44:28.442Z,29.53
2022-12-13T21:47:13.831Z,29.47
2022-12-13T21:49:48.840Z,33.17
2022-12-13T21:52:20.905Z,31.87
2022-12-13T21:54:47.994Z,37.43
2022-12-13T21:57:33.485Z,38.60
2022-12-13T22:00:02.819Z,35.23
2022-12-13T22:02:30.100Z,34.00
2022-12-13T22:04:59.426Z,41.23
2022-12-13T22:07:27.690Z,38.20
2022-12-13T22:09:58.271Z,41.83
2022-12-13T22:12:39.310Z,34.67
2022-12-13T22:15:14.211Z,37.47
2022-12-13T22:17:42.134Z,33.80
2022-12-13T22:20:15.338Z,37.80
2022-12-13T22:22:44.213Z,37.53
2022-12-13T22:25:11.408Z,36.27
2022-12-13T22:27:38.571Z,35.23
2022-12-13T22:30:06.298Z,32.37
2022-12-13T22:32:35.919Z,33.47
2022-12-13T22:35:04.770Z,36.07
2022-12-13T22:37:33.220Z,36.60
2022-12-13T22:40:02.843Z,31.63
2022-12-13T22:42:30.019Z,31.53
2022-12-13T22:44:57.139Z,31.83
2022-12-13T22:47:24.195Z,31.30
2022-12-13T22:49:55.893Z,32.70
2022-12-13T22:52:23.006Z,33.00
2022-12-13T22:54:50.122Z,28.53
2022-12-13T22:57:17.211Z,29.10
2022-12-13T22:59:44.811Z,29.77
2022-12-13T23:02:15.419Z,30.73
2022-12-13T23:04:42.592Z,30.80
2022-12-13T23:07:12.023Z,28.27
2022-12-13T23:09:42.541Z,29.30
2022-12-13T23:12:30.844Z,31.47
2022-12-13T23:14:57.967Z,29.40
2022-12-13T23:17:27.415Z,25.53
2022-12-13T23:19:54.575Z,28.53
2022-12-13T23:22:25.800Z,26.67
2022-12-13T23:24:53.434Z,27.27
2022-12-13T23:27:27.544Z,29.33
2022-12-13T23:29:57.054Z,26.40
2022-12-13T23:32:24.350Z,29.13
2022-12-13T23:34:55.953Z,27.67
2022-12-13T23:37:23.060Z,29.37
2022-12-13T23:39:50.166Z,27.30
2022-12-13T23:42:19.532Z,26.93
2022-12-13T23:44:48.870Z,26.43
2022-12-13T23:47:18.187Z,26.83
2022-12-13T23:49:45.300Z,28.67
2022-12-13T23:52:15.495Z,26.87
2022-12-13T23:54:44.971Z,26.40
2022-12-13T23:57:14.657Z,27.57
2022-12-13T23:59:41.994Z,26.63
